createdAt,value
2018-10-16T00:00:09.790Z,13.17
2018-10-16T00:01:10.262Z,13.23
2018-10-16T00:02:10.729Z,13.30
2018-10-16T00:03:11.277Z,13.36
2018-10-16T00:04:11.669Z,13.45
2018-10-16T00:05:12.138Z,13.52
2018-10-16T00:06:12.608Z,13.61
2018-10-16T00:07:13.080Z,13.68
2018-10-16T00:08:13.546Z,13.79
2018-10-16T00:09:14.016Z,13.89
2018-10-16T00:10:14.486Z,13.97
2018-10-16T00:11:14.956Z,14.05
2018-10-16T00:12:15.426Z,14.11
2018-10-16T00:13:15.897Z,14.19
2018-10-16T00:14:16.367Z,14.26
2018-10-16T00:15:16.840Z,14.34
2018-10-16T00:16:17.306Z,14.41
2018-10-16T00:17:17.778Z,14.48
2018-10-16T00:18:18.247Z,14.55
2018-10-16T00:19:18.718Z,14.60
2018-10-16T00:20:19.197Z,14.68
2018-10-16T00:21:19.660Z,14.72
2018-10-16T00:22:20.132Z,14.81
2018-10-16T00:23:20.602Z,14.88
2018-10-16T00:24:21.074Z,14.94
2018-10-16T00:25:21.547Z,15.03
2018-10-16T00:26:22.020Z,15.10
2018-10-16T00:27:22.488Z,15.15
2018-10-16T00:28:22.960Z,15.20
2018-10-16T00:29:23.434Z,15.29
2018-10-16T00:30:23.907Z,15.35
2018-10-16T00:31:24.377Z,15.40
2018-10-16T00:32:24.895Z,15.47
2018-10-16T00:33:25.324Z,15.51
2018-10-16T00:34:25.794Z,15.58
2018-10-16T00:35:26.268Z,15.63
2018-10-16T00:36:26.744Z,15.67
2018-10-16T00:37:27.217Z,15.73
2018-10-16T00:38:27.686Z,15.78
2018-10-16T00:39:28.159Z,15.77
2018-10-16T00:40:28.635Z,15.75
2018-10-16T00:41:29.107Z,15.73
2018-10-16T00:42:29.581Z,15.69
2018-10-16T00:43:30.052Z,15.61
2018-10-16T00:44:30.528Z,15.51
2018-10-16T00:45:31.000Z,15.42
2018-10-16T00:46:31.473Z,15.31
2018-10-16T00:47:31.944Z,15.20
2018-10-16T00:48:32.417Z,15.07
2018-10-16T00:49:32.891Z,14.93
2018-10-16T00:50:33.363Z,14.79
2018-10-16T00:51:33.835Z,14.65
2018-10-16T00:52:34.306Z,14.50
2018-10-16T00:53:34.782Z,14.35
2018-10-16T00:54:35.256Z,14.19
2018-10-16T00:55:35.725Z,14.04
2018-10-16T00:56:36.196Z,13.88
2018-10-16T00:57:36.720Z,13.74
2018-10-16T00:58:37.141Z,13.58
2018-10-16T00:59:37.609Z,13.43
2018-10-16T01:00:38.080Z,13.27
2018-10-16T01:01:38.588Z,13.14
2018-10-16T01:02:39.053Z,13.02
2018-10-16T01:03:39.491Z,12.91
2018-10-16T01:04:39.962Z,12.83
2018-10-16T01:05:40.432Z,12.78
2018-10-16T01:06:40.904Z,12.74
2018-10-16T01:07:41.370Z,12.72
2018-10-16T01:08:41.892Z,12.72
2018-10-16T01:09:42.311Z,12.73
2018-10-16T01:10:42.784Z,12.74
2018-10-16T01:11:43.251Z,12.80
2018-10-16T01:12:43.720Z,12.87
2018-10-16T01:13:44.190Z,12.94
2018-10-16T01:14:44.661Z,13.02
2018-10-16T01:15:45.126Z,13.10
2018-10-16T01:16:45.596Z,13.18
2018-10-16T01:17:46.068Z,13.25
2018-10-16T01:18:46.540Z,13.34
2018-10-16T01:19:47.005Z,13.43
2018-10-16T01:20:47.474Z,13.51
2018-10-16T01:21:47.948Z,13.60
2018-10-16T01:22:48.417Z,13.69
2018-10-16T01:23:48.882Z,13.78
2018-10-16T01:24:49.353Z,13.85
2018-10-16T01:25:49.825Z,13.94
2018-10-16T01:26:50.292Z,14.03
2018-10-16T01:27:50.761Z,14.11
2018-10-16T01:28:51.232Z,14.17
2018-10-16T01:29:51.704Z,14.25
2018-10-16T01:30:52.173Z,14.32
2018-10-16T01:31:52.644Z,14.38
2018-10-16T01:32:53.113Z,14.47
2018-10-16T01:33:53.586Z,14.54
2018-10-16T01:34:54.059Z,14.60
2018-10-16T01:35:54.524Z,14.67
2018-10-16T01:36:54.996Z,14.74
2018-10-16T01:37:55.475Z,14.80
2018-10-16T01:38:55.939Z,14.86
2018-10-16T01:39:56.409Z,14.90
2018-10-16T01:40:56.882Z,14.97
2018-10-16T01:41:57.353Z,15.01
2018-10-16T01:42:57.824Z,15.07
2018-10-16T01:43:58.297Z,15.14
2018-10-16T01:44:58.770Z,15.19
2018-10-16T01:45:59.250Z,15.23
2018-10-16T01:46:59.746Z,15.28
2018-10-16T01:48:00.186Z,15.32
2018-10-16T01:49:00.657Z,15.35
2018-10-16T01:50:01.130Z,15.40
2018-10-16T01:51:01.603Z,15.44
2018-10-16T01:52:02.075Z,15.48
2018-10-16T01:53:02.547Z,15.52
2018-10-16T01:54:03.024Z,15.57
2018-10-16T01:55:03.497Z,15.59
2018-10-16T01:56:03.966Z,15.56
2018-10-16T01:57:04.440Z,15.54
2018-10-16T01:58:04.912Z,15.50
2018-10-16T01:59:05.386Z,15.45
2018-10-16T02:00:05.860Z,15.35
2018-10-16T02:01:06.331Z,15.25
2018-10-16T02:02:06.805Z,15.14
2018-10-16T02:03:07.279Z,15.04
2018-10-16T02:04:07.807Z,14.91
2018-10-16T02:05:08.223Z,14.77
2018-10-16T02:06:08.696Z,14.63
2018-10-16T02:07:09.174Z,14.49
2018-10-16T02:08:09.641Z,14.33
2018-10-16T02:09:10.114Z,14.16
2018-10-16T02:10:10.585Z,13.99
2018-10-16T02:11:11.058Z,13.82
2018-10-16T02:12:11.534Z,13.66
2018-10-16T02:13:12.001Z,13.50
2018-10-16T02:14:12.475Z,13.34
2018-10-16T02:15:12.946Z,13.18
2018-10-16T02:16:13.414Z,13.02
2018-10-16T02:17:13.884Z,12.87
2018-10-16T02:18:14.355Z,12.75
2018-10-16T02:19:14.829Z,12.63
2018-10-16T02:20:15.295Z,12.55
2018-10-16T02:21:15.765Z,12.49
2018-10-16T02:22:16.235Z,12.45
2018-10-16T02:23:16.705Z,12.42
2018-10-16T02:24:17.175Z,12.41
2018-10-16T02:25:17.647Z,12.42
2018-10-16T02:26:18.113Z,12.41
2018-10-16T02:27:18.583Z,12.47
2018-10-16T02:28:19.054Z,12.54
2018-10-16T02:29:19.521Z,12.60
2018-10-16T02:30:19.992Z,12.68
2018-10-16T02:31:20.461Z,12.71
2018-10-16T02:32:20.930Z,12.80
2018-10-16T02:33:21.398Z,12.88
2018-10-16T02:34:21.870Z,12.96
2018-10-16T02:35:22.337Z,13.04
2018-10-16T02:36:22.807Z,13.14
2018-10-16T02:37:23.276Z,13.22
2018-10-16T02:38:23.746Z,13.31
2018-10-16T02:39:24.215Z,13.39
2018-10-16T02:40:24.683Z,13.45
2018-10-16T02:41:25.153Z,13.55
2018-10-16T02:42:25.622Z,13.63
2018-10-16T02:43:26.095Z,13.70
2018-10-16T02:44:26.563Z,13.76
2018-10-16T02:45:27.032Z,13.84
2018-10-16T02:46:27.503Z,13.91
2018-10-16T02:47:27.973Z,13.98
2018-10-16T02:48:28.443Z,14.04
2018-10-16T02:49:28.914Z,14.10
2018-10-16T02:50:29.386Z,14.17
2018-10-16T02:51:29.862Z,14.21
2018-10-16T02:52:30.324Z,14.26
2018-10-16T02:53:30.796Z,14.33
2018-10-16T02:54:31.317Z,14.38
2018-10-16T02:55:31.740Z,14.43
2018-10-16T02:56:32.209Z,14.51
2018-10-16T02:57:32.679Z,14.57
2018-10-16T02:58:33.150Z,14.61
2018-10-16T02:59:33.621Z,14.67
2018-10-16T03:00:34.093Z,14.71
2018-10-16T03:01:34.565Z,14.75
2018-10-16T03:02:35.036Z,14.80
2018-10-16T03:03:35.512Z,14.83
2018-10-16T03:04:35.979Z,14.89
2018-10-16T03:05:36.463Z,14.91
2018-10-16T03:06:36.925Z,14.95
2018-10-16T03:07:37.400Z,15.00
2018-10-16T03:08:37.871Z,15.04
2018-10-16T03:09:38.340Z,15.07
2018-10-16T03:10:38.813Z,15.11
2018-10-16T03:11:39.285Z,15.14
2018-10-16T03:12:39.757Z,15.17
2018-10-16T03:13:40.237Z,15.21
2018-10-16T03:14:40.704Z,15.27
2018-10-16T03:15:41.176Z,15.30
2018-10-16T03:16:41.649Z,15.32
2018-10-16T03:17:42.125Z,15.34
2018-10-16T03:18:42.599Z,15.33
2018-10-16T03:19:43.067Z,15.26
2018-10-16T03:20:43.539Z,15.24
2018-10-16T03:21:44.018Z,15.18
2018-10-16T03:22:44.487Z,15.06
2018-10-16T03:23:44.962Z,14.96
2018-10-16T03:24:45.432Z,14.84
2018-10-16T03:25:45.904Z,14.72
2018-10-16T03:26:46.378Z,14.59
2018-10-16T03:27:46.852Z,14.46
2018-10-16T03:28:47.322Z,14.31
2018-10-16T03:29:47.795Z,14.15
2018-10-16T03:30:48.271Z,14.00
2018-10-16T03:31:48.745Z,13.83
2018-10-16T03:32:49.213Z,13.68
2018-10-16T03:33:49.684Z,13.51
2018-10-16T03:34:50.157Z,13.34
2018-10-16T03:35:50.627Z,13.19
2018-10-16T03:36:51.098Z,13.01
2018-10-16T03:37:51.569Z,12.85
2018-10-16T03:38:52.039Z,12.70
2018-10-16T03:39:52.564Z,12.56
2018-10-16T03:40:52.978Z,12.46
2018-10-16T03:41:53.452Z,12.38
2018-10-16T03:42:53.919Z,12.31
2018-10-16T03:43:54.389Z,12.27
2018-10-16T03:44:54.858Z,12.24
2018-10-16T03:45:55.327Z,12.24
2018-10-16T03:46:55.797Z,12.24
2018-10-16T03:47:56.269Z,12.25
2018-10-16T03:48:56.742Z,12.30
2018-10-16T03:49:57.208Z,12.36
2018-10-16T03:50:57.674Z,12.42
2018-10-16T03:51:58.144Z,12.47
2018-10-16T03:52:58.613Z,12.54
2018-10-16T03:53:59.082Z,12.60
2018-10-16T03:54:59.550Z,12.66
2018-10-16T03:56:00.022Z,12.74
2018-10-16T03:57:00.491Z,12.81
2018-10-16T03:58:00.959Z,12.91
2018-10-16T03:59:01.429Z,13.00
2018-10-16T04:00:01.898Z,13.08
2018-10-16T04:01:02.368Z,13.16
2018-10-16T04:02:02.838Z,13.22
2018-10-16T04:03:03.304Z,13.31
2018-10-16T04:04:03.775Z,13.39
2018-10-16T04:05:04.243Z,13.48
2018-10-16T04:06:04.714Z,13.53
2018-10-16T04:07:05.186Z,13.60
2018-10-16T04:08:05.655Z,13.66
2018-10-16T04:09:06.123Z,13.75
2018-10-16T04:10:06.596Z,13.80
2018-10-16T04:11:07.066Z,13.88
2018-10-16T04:12:07.538Z,13.92
2018-10-16T04:13:08.011Z,13.99
2018-10-16T04:14:08.513Z,14.05
2018-10-16T04:15:08.946Z,14.11
2018-10-16T04:16:09.417Z,14.17
2018-10-16T04:17:09.886Z,14.23
2018-10-16T04:18:10.360Z,14.27
2018-10-16T04:19:10.829Z,14.32
2018-10-16T04:20:11.356Z,14.39
2018-10-16T04:21:11.769Z,14.42
2018-10-16T04:22:12.296Z,14.48
2018-10-16T04:23:12.714Z,14.53
2018-10-16T04:24:13.188Z,14.56
2018-10-16T04:25:13.656Z,14.59
2018-10-16T04:26:14.130Z,14.64
2018-10-16T04:27:14.602Z,14.69
2018-10-16T04:28:15.072Z,14.73
2018-10-16T04:29:15.597Z,14.79
2018-10-16T04:30:16.016Z,14.84
2018-10-16T04:31:16.489Z,14.87
2018-10-16T04:32:16.963Z,14.88
2018-10-16T04:33:17.433Z,14.94
2018-10-16T04:34:17.911Z,14.96
2018-10-16T04:35:18.378Z,14.99
2018-10-16T04:36:18.850Z,15.01
2018-10-16T04:37:19.325Z,15.08
2018-10-16T04:38:19.794Z,15.11
2018-10-16T04:39:20.268Z,15.13
2018-10-16T04:40:20.741Z,15.18
2018-10-16T04:41:21.214Z,15.19
2018-10-16T04:42:21.685Z,15.17
2018-10-16T04:43:22.162Z,15.11
2018-10-16T04:44:22.639Z,15.07
2018-10-16T04:45:23.105Z,14.99
2018-10-16T04:46:23.578Z,14.88
2018-10-16T04:47:24.052Z,14.77
2018-10-16T04:48:24.523Z,14.65
2018-10-16T04:49:24.995Z,14.52
2018-10-16T04:50:25.469Z,14.39
2018-10-16T04:51:25.943Z,14.24
2018-10-16T04:52:26.417Z,14.09
2018-10-16T04:53:26.887Z,13.91
2018-10-16T04:54:27.360Z,13.77
2018-10-16T04:55:27.830Z,13.59
2018-10-16T04:56:28.304Z,13.42
2018-10-16T04:57:28.774Z,13.26
2018-10-16T04:58:29.257Z,13.08
2018-10-16T04:59:29.716Z,12.90
2018-10-16T05:00:30.188Z,12.73
2018-10-16T05:01:30.660Z,12.56
2018-10-16T05:02:31.129Z,12.42
2018-10-16T05:03:31.599Z,12.29
2018-10-16T05:04:32.073Z,12.20
2018-10-16T05:05:32.539Z,12.12
2018-10-16T05:06:33.016Z,12.06
2018-10-16T05:07:33.479Z,12.03
2018-10-16T05:08:33.948Z,12.01
2018-10-16T05:09:34.418Z,12.00
2018-10-16T05:10:34.888Z,12.00
2018-10-16T05:11:35.357Z,12.05
2018-10-16T05:12:35.827Z,12.07
2018-10-16T05:13:36.296Z,12.11
2018-10-16T05:14:36.765Z,12.16
2018-10-16T05:15:37.294Z,12.21
2018-10-16T05:16:37.705Z,12.26
2018-10-16T05:17:38.176Z,12.31
2018-10-16T05:18:38.643Z,12.39
2018-10-16T05:19:39.112Z,12.46
2018-10-16T05:20:39.581Z,12.54
2018-10-16T05:21:40.064Z,12.61
2018-10-16T05:22:40.517Z,12.70
2018-10-16T05:23:40.986Z,12.78
2018-10-16T05:24:41.458Z,12.85
2018-10-16T05:25:41.925Z,12.90
2018-10-16T05:26:42.397Z,12.98
2018-10-16T05:27:42.865Z,13.06
2018-10-16T05:28:43.335Z,13.14
2018-10-16T05:29:43.805Z,13.19
2018-10-16T05:30:44.273Z,13.25
2018-10-16T05:31:44.743Z,13.34
2018-10-16T05:32:45.216Z,13.40
2018-10-16T05:33:45.684Z,13.46
2018-10-16T05:34:46.159Z,13.49
2018-10-16T05:35:46.623Z,13.56
2018-10-16T05:36:47.094Z,13.60
2018-10-16T05:37:47.563Z,13.70
2018-10-16T05:38:48.035Z,13.74
2018-10-16T05:39:48.506Z,13.79
2018-10-16T05:40:48.977Z,13.83
2018-10-16T05:41:49.448Z,13.87
2018-10-16T05:42:49.919Z,13.92
2018-10-16T05:43:50.390Z,13.96
2018-10-16T05:44:50.864Z,14.01
2018-10-16T05:45:51.331Z,14.07
2018-10-16T05:46:51.805Z,14.11
2018-10-16T05:47:52.274Z,14.16
2018-10-16T05:48:52.745Z,14.20
2018-10-16T05:49:53.217Z,14.24
2018-10-16T05:50:53.687Z,14.27
2018-10-16T05:51:54.163Z,14.32
2018-10-16T05:52:54.631Z,14.37
2018-10-16T05:53:55.148Z,14.40
2018-10-16T05:54:55.586Z,14.43
2018-10-16T05:55:56.047Z,14.49
2018-10-16T05:56:56.520Z,14.55
2018-10-16T05:57:56.990Z,14.58
2018-10-16T05:58:57.462Z,14.64
2018-10-16T05:59:57.939Z,14.69
2018-10-16T06:00:58.459Z,14.75
2018-10-16T06:01:58.880Z,14.80
2018-10-16T06:02:59.353Z,14.83
2018-10-16T06:03:59.829Z,14.87
2018-10-16T06:05:00.299Z,14.93
2018-10-16T06:06:00.769Z,14.97
2018-10-16T06:07:01.247Z,15.01
2018-10-16T06:08:01.716Z,15.06
2018-10-16T06:09:02.191Z,15.11
2018-10-16T06:10:02.661Z,15.15
2018-10-16T06:11:03.135Z,15.20
2018-10-16T06:12:03.628Z,15.20
2018-10-16T06:13:04.081Z,15.16
2018-10-16T06:14:04.557Z,15.11
2018-10-16T06:15:05.030Z,15.07
2018-10-16T06:16:05.617Z,14.99
2018-10-16T06:17:05.975Z,14.89
2018-10-16T06:18:06.450Z,14.79
2018-10-16T06:19:06.919Z,14.69
2018-10-16T06:20:07.394Z,14.57
2018-10-16T06:21:07.866Z,14.45
2018-10-16T06:22:08.339Z,14.33
2018-10-16T06:23:08.810Z,14.21
2018-10-16T06:24:09.283Z,14.07
2018-10-16T06:25:09.755Z,13.93
2018-10-16T06:26:10.277Z,13.80
2018-10-16T06:27:10.701Z,13.66
2018-10-16T06:28:11.171Z,13.52
2018-10-16T06:29:11.642Z,13.37
2018-10-16T06:30:12.137Z,13.22
2018-10-16T06:31:12.584Z,13.08
2018-10-16T06:32:13.057Z,12.94
2018-10-16T06:33:13.600Z,12.81
2018-10-16T06:34:13.996Z,12.71
2018-10-16T06:35:14.467Z,12.64
2018-10-16T06:36:14.938Z,12.60
2018-10-16T06:37:15.407Z,12.56
2018-10-16T06:38:15.878Z,12.57
2018-10-16T06:39:16.347Z,12.59
2018-10-16T06:40:16.818Z,12.62
2018-10-16T06:41:17.350Z,12.65
2018-10-16T06:42:17.757Z,12.73
2018-10-16T06:43:18.225Z,12.82
2018-10-16T06:44:18.698Z,12.89
2018-10-16T06:45:19.181Z,12.99
2018-10-16T06:46:19.640Z,13.09
2018-10-16T06:47:20.207Z,13.18
2018-10-16T06:48:20.732Z,13.30
2018-10-16T06:49:21.044Z,13.42
2018-10-16T06:50:21.511Z,13.53
2018-10-16T06:51:21.982Z,13.63
2018-10-16T06:52:22.457Z,13.74
2018-10-16T06:53:22.990Z,13.85
2018-10-16T06:54:23.390Z,13.95
2018-10-16T06:55:23.861Z,14.06
2018-10-16T06:56:24.331Z,14.16
2018-10-16T06:57:24.805Z,14.28
2018-10-16T06:58:25.271Z,14.36
2018-10-16T06:59:25.743Z,14.46
2018-10-16T07:00:26.214Z,14.56
2018-10-16T07:01:26.685Z,14.66
2018-10-16T07:02:27.153Z,14.76
2018-10-16T07:03:27.624Z,14.84
2018-10-16T07:04:28.095Z,14.94
2018-10-16T07:05:28.568Z,15.04
2018-10-16T07:06:29.135Z,15.12
2018-10-16T07:07:29.523Z,15.20
2018-10-16T07:08:29.984Z,15.29
2018-10-16T07:09:30.452Z,15.35
2018-10-16T07:10:30.923Z,15.44
2018-10-16T07:11:31.397Z,15.52
2018-10-16T07:12:31.874Z,15.60
2018-10-16T07:13:32.341Z,15.70
2018-10-16T07:14:32.815Z,15.78
2018-10-16T07:15:33.285Z,15.85
2018-10-16T07:16:33.761Z,15.93
2018-10-16T07:17:34.232Z,16.04
2018-10-16T07:18:34.705Z,16.11
2018-10-16T07:19:35.176Z,16.17
2018-10-16T07:20:35.652Z,16.24
2018-10-16T07:21:36.230Z,16.29
2018-10-16T07:22:36.595Z,16.39
2018-10-16T07:23:37.181Z,16.45
2018-10-16T07:24:37.544Z,16.51
2018-10-16T07:25:38.021Z,16.49
2018-10-16T07:26:38.541Z,16.48
2018-10-16T07:27:38.966Z,16.45
2018-10-16T07:28:39.441Z,16.39
2018-10-16T07:29:39.912Z,16.33
2018-10-16T07:30:40.390Z,16.26
2018-10-16T07:31:40.858Z,16.16
2018-10-16T07:32:41.335Z,16.09
2018-10-16T07:33:41.807Z,16.01
2018-10-16T07:34:42.281Z,15.93
2018-10-16T07:35:42.755Z,15.84
2018-10-16T07:36:43.226Z,15.75
2018-10-16T07:37:43.758Z,15.65
2018-10-16T07:38:44.195Z,15.54
2018-10-16T07:39:44.645Z,15.45
2018-10-16T07:40:45.120Z,15.34
2018-10-16T07:41:45.593Z,15.25
2018-10-16T07:42:46.064Z,15.14
2018-10-16T07:43:46.544Z,15.03
2018-10-16T07:44:47.009Z,14.92
2018-10-16T07:45:47.480Z,14.82
2018-10-16T07:46:47.952Z,14.73
2018-10-16T07:47:48.424Z,14.63
2018-10-16T07:48:48.896Z,14.54
2018-10-16T07:49:49.370Z,14.45
2018-10-16T07:50:49.837Z,14.36
2018-10-16T07:51:50.308Z,14.28
2018-10-16T07:52:50.781Z,14.22
2018-10-16T07:53:51.265Z,14.16
2018-10-16T07:54:51.721Z,14.14
2018-10-16T07:55:52.191Z,14.14
2018-10-16T07:56:52.670Z,14.17
2018-10-16T07:57:53.140Z,14.21
2018-10-16T07:58:53.602Z,14.26
2018-10-16T07:59:54.072Z,14.34
2018-10-16T08:00:54.544Z,14.42
2018-10-16T08:01:55.013Z,14.50
2018-10-16T08:02:55.483Z,14.61
2018-10-16T08:03:55.954Z,14.71
2018-10-16T08:04:56.423Z,14.82
2018-10-16T08:05:56.893Z,14.93
2018-10-16T08:06:57.364Z,15.07
2018-10-16T08:07:57.835Z,15.20
2018-10-16T08:08:58.304Z,15.34
2018-10-16T08:09:58.778Z,15.48
2018-10-16T08:10:59.244Z,15.60
2018-10-16T08:11:59.770Z,15.74
2018-10-16T08:13:00.189Z,15.88
2018-10-16T08:14:00.658Z,16.03
2018-10-16T08:15:01.131Z,16.16
2018-10-16T08:16:01.603Z,16.30
2018-10-16T08:17:02.142Z,16.42
2018-10-16T08:18:02.544Z,16.53
2018-10-16T08:19:03.015Z,16.63
2018-10-16T08:20:03.487Z,16.75
2018-10-16T08:21:03.959Z,16.88
2018-10-16T08:22:04.432Z,16.98
2018-10-16T08:23:04.904Z,17.08
2018-10-16T08:24:05.374Z,17.18
2018-10-16T08:25:05.849Z,17.28
2018-10-16T08:26:06.323Z,17.37
2018-10-16T08:27:06.795Z,17.46
2018-10-16T08:28:07.268Z,17.57
2018-10-16T08:29:07.742Z,17.70
2018-10-16T08:30:08.271Z,17.80
2018-10-16T08:31:08.689Z,17.87
2018-10-16T08:32:09.164Z,17.94
2018-10-16T08:33:09.638Z,18.00
2018-10-16T08:34:10.149Z,18.04
2018-10-16T08:35:10.587Z,18.02
2018-10-16T08:36:11.092Z,18.01
2018-10-16T08:37:11.550Z,18.00
2018-10-16T08:38:12.009Z,17.96
2018-10-16T08:39:12.482Z,17.92
2018-10-16T08:40:12.956Z,17.88
2018-10-16T08:41:13.432Z,17.82
2018-10-16T08:42:13.908Z,17.76
2018-10-16T08:43:14.379Z,17.70
2018-10-16T08:44:14.854Z,17.63
2018-10-16T08:45:15.327Z,17.57
2018-10-16T08:46:15.802Z,17.48
2018-10-16T08:47:16.354Z,17.42
2018-10-16T08:48:16.751Z,17.35
2018-10-16T08:49:17.226Z,17.29
2018-10-16T08:50:17.697Z,17.21
2018-10-16T08:51:18.172Z,17.13
2018-10-16T08:52:18.643Z,17.06
2018-10-16T08:53:19.122Z,16.98
2018-10-16T08:54:19.590Z,16.91
2018-10-16T08:55:20.064Z,16.83
2018-10-16T08:56:20.536Z,16.77
2018-10-16T08:57:21.061Z,16.70
2018-10-16T08:58:21.484Z,16.63
2018-10-16T08:59:21.953Z,16.57
2018-10-16T09:00:22.425Z,16.51
2018-10-16T09:01:22.897Z,16.46
2018-10-16T09:02:23.373Z,16.40
2018-10-16T09:03:23.842Z,16.36
2018-10-16T09:04:24.314Z,16.31
2018-10-16T09:05:24.785Z,16.27
2018-10-16T09:06:25.258Z,16.21
2018-10-16T09:07:25.727Z,16.17
2018-10-16T09:08:26.199Z,16.13
2018-10-16T09:09:26.672Z,16.10
2018-10-16T09:10:27.142Z,16.07
2018-10-16T09:11:27.614Z,16.05
2018-10-16T09:12:28.083Z,16.03
2018-10-16T09:13:28.553Z,16.02
2018-10-16T09:14:29.091Z,16.04
2018-10-16T09:15:29.499Z,16.07
2018-10-16T09:16:29.967Z,16.12
2018-10-16T09:17:30.491Z,16.18
2018-10-16T09:18:30.907Z,16.28
2018-10-16T09:19:31.377Z,16.38
2018-10-16T09:20:31.848Z,16.49
2018-10-16T09:21:32.320Z,16.62
2018-10-16T09:22:32.793Z,16.74
2018-10-16T09:23:33.260Z,16.88
2018-10-16T09:24:33.751Z,17.02
2018-10-16T09:25:34.203Z,17.17
2018-10-16T09:26:34.674Z,17.32
2018-10-16T09:27:35.146Z,17.47
2018-10-16T09:28:35.616Z,17.63
2018-10-16T09:29:36.087Z,17.79
2018-10-16T09:30:36.562Z,17.95
2018-10-16T09:31:37.036Z,18.10
2018-10-16T09:32:37.539Z,18.25
2018-10-16T09:33:37.976Z,18.38
2018-10-16T09:34:38.449Z,18.52
2018-10-16T09:35:38.920Z,18.64
2018-10-16T09:36:39.436Z,18.76
2018-10-16T09:37:39.927Z,18.90
2018-10-16T09:38:40.343Z,19.02
2018-10-16T09:39:40.812Z,19.14
2018-10-16T09:40:41.287Z,19.25
2018-10-16T09:41:41.759Z,19.36
2018-10-16T09:42:42.284Z,19.44
2018-10-16T09:43:42.707Z,19.51
2018-10-16T09:44:43.210Z,19.56
2018-10-16T09:45:43.658Z,19.60
2018-10-16T09:46:44.131Z,19.61
2018-10-16T09:47:44.608Z,19.61
2018-10-16T09:48:45.085Z,19.60
2018-10-16T09:49:45.560Z,19.57
2018-10-16T09:50:46.031Z,19.55
2018-10-16T09:51:46.505Z,19.51
2018-10-16T09:52:46.981Z,19.47
2018-10-16T09:53:47.457Z,19.42
2018-10-16T09:54:47.932Z,19.37
2018-10-16T09:55:48.406Z,19.32
2018-10-16T09:56:48.885Z,19.25
2018-10-16T09:57:49.356Z,19.19
2018-10-16T09:58:49.832Z,19.13
2018-10-16T09:59:50.304Z,19.06
2018-10-16T10:00:50.842Z,18.99
2018-10-16T10:01:51.253Z,18.92
2018-10-16T10:02:51.727Z,18.85
2018-10-16T10:03:52.205Z,18.78
2018-10-16T10:04:52.676Z,18.71
2018-10-16T10:05:53.149Z,18.65
2018-10-16T10:06:53.624Z,18.58
2018-10-16T10:07:54.097Z,18.52
2018-10-16T10:08:54.572Z,18.45
2018-10-16T10:09:55.046Z,18.39
2018-10-16T10:10:55.537Z,18.34
2018-10-16T10:11:55.991Z,18.29
2018-10-16T10:12:56.468Z,18.24
2018-10-16T10:13:56.941Z,18.18
2018-10-16T10:14:57.414Z,18.14
2018-10-16T10:15:57.886Z,18.09
2018-10-16T10:16:58.359Z,18.05
2018-10-16T10:17:58.832Z,18.01
2018-10-16T10:18:59.302Z,17.97
2018-10-16T10:19:59.775Z,17.93
2018-10-16T10:21:00.247Z,17.89
2018-10-16T10:22:00.722Z,17.85
2018-10-16T10:23:01.192Z,17.82
2018-10-16T10:24:01.666Z,17.78
2018-10-16T10:25:02.208Z,17.74
2018-10-16T10:26:02.611Z,17.71
2018-10-16T10:27:03.081Z,17.68
2018-10-16T10:28:03.856Z,17.66
2018-10-16T10:29:04.026Z,17.64
2018-10-16T10:30:04.699Z,17.60
2018-10-16T10:31:04.978Z,17.58
2018-10-16T10:32:05.441Z,17.55
2018-10-16T10:33:05.914Z,17.53
2018-10-16T10:34:06.384Z,17.49
2018-10-16T10:35:06.858Z,17.46
2018-10-16T10:36:07.326Z,17.43
2018-10-16T10:37:07.796Z,17.41
2018-10-16T10:38:08.268Z,17.39
2018-10-16T10:39:08.740Z,17.37
2018-10-16T10:40:09.209Z,17.36
2018-10-16T10:41:09.680Z,17.34
2018-10-16T10:42:10.208Z,17.34
2018-10-16T10:43:10.625Z,17.32
2018-10-16T10:44:11.095Z,17.31
2018-10-16T10:45:11.565Z,17.32
2018-10-16T10:46:12.037Z,17.31
2018-10-16T10:47:12.511Z,17.33
2018-10-16T10:48:12.975Z,17.36
2018-10-16T10:49:13.446Z,17.40
2018-10-16T10:50:14.089Z,17.45
2018-10-16T10:51:14.686Z,17.53
2018-10-16T10:52:14.857Z,17.63
2018-10-16T10:53:15.380Z,17.74
2018-10-16T10:54:15.803Z,17.86
2018-10-16T10:55:16.271Z,17.99
2018-10-16T10:56:16.743Z,18.14
2018-10-16T10:57:17.289Z,18.29
2018-10-16T10:58:17.685Z,18.45
2018-10-16T10:59:18.157Z,18.60
2018-10-16T11:00:18.629Z,18.76
2018-10-16T11:01:19.100Z,18.93
2018-10-16T11:02:19.572Z,19.09
2018-10-16T11:03:20.161Z,19.24
2018-10-16T11:04:20.515Z,19.40
2018-10-16T11:05:20.989Z,19.55
2018-10-16T11:06:21.462Z,19.71
2018-10-16T11:07:21.936Z,19.86
2018-10-16T11:08:22.410Z,20.00
2018-10-16T11:09:22.882Z,20.13
2018-10-16T11:10:23.355Z,20.26
2018-10-16T11:11:23.831Z,20.37
2018-10-16T11:12:24.303Z,20.46
2018-10-16T11:13:24.779Z,20.51
2018-10-16T11:14:25.254Z,20.57
2018-10-16T11:15:25.730Z,20.62
2018-10-16T11:16:26.201Z,20.65
2018-10-16T11:17:26.683Z,20.67
2018-10-16T11:18:27.152Z,20.68
2018-10-16T11:19:27.669Z,20.68
2018-10-16T11:20:28.102Z,20.69
2018-10-16T11:21:28.578Z,20.67
2018-10-16T11:22:29.054Z,20.64
2018-10-16T11:23:29.531Z,20.61
2018-10-16T11:24:30.003Z,20.57
2018-10-16T11:25:30.477Z,20.52
2018-10-16T11:26:30.953Z,20.48
2018-10-16T11:27:31.429Z,20.43
2018-10-16T11:28:31.903Z,20.37
2018-10-16T11:29:32.381Z,20.30
2018-10-16T11:30:32.855Z,20.24
2018-10-16T11:31:33.329Z,20.18
2018-10-16T11:32:33.803Z,20.14
2018-10-16T11:33:34.281Z,20.09
2018-10-16T11:34:34.753Z,20.04
2018-10-16T11:35:35.228Z,20.00
2018-10-16T11:36:35.706Z,19.96
2018-10-16T11:37:36.178Z,19.92
2018-10-16T11:38:36.653Z,19.86
2018-10-16T11:39:37.127Z,19.80
2018-10-16T11:40:37.602Z,19.74
2018-10-16T11:41:38.077Z,19.69
2018-10-16T11:42:38.553Z,19.65
2018-10-16T11:43:39.028Z,19.62
2018-10-16T11:44:39.701Z,19.60
2018-10-16T11:45:40.016Z,19.57
2018-10-16T11:46:40.448Z,19.55
2018-10-16T11:47:40.921Z,19.52
2018-10-16T11:48:41.392Z,19.48
2018-10-16T11:49:41.870Z,19.46
2018-10-16T11:50:42.343Z,19.43
2018-10-16T11:51:42.816Z,19.40
2018-10-16T11:52:43.289Z,19.38
2018-10-16T11:53:43.761Z,19.35
2018-10-16T11:54:44.234Z,19.33
2018-10-16T11:55:44.709Z,19.31
2018-10-16T11:56:45.181Z,19.27
2018-10-16T11:57:45.655Z,19.25
2018-10-16T11:58:46.128Z,19.23
2018-10-16T11:59:46.606Z,19.22
2018-10-16T12:00:47.075Z,19.20
2018-10-16T12:01:47.552Z,19.19
2018-10-16T12:02:48.021Z,19.18
2018-10-16T12:03:48.497Z,19.16
2018-10-16T12:04:48.965Z,19.14
2018-10-16T12:05:49.534Z,19.12
2018-10-16T12:06:49.965Z,19.10
2018-10-16T12:07:50.415Z,19.08
2018-10-16T12:08:51.060Z,19.06
2018-10-16T12:09:51.328Z,19.05
2018-10-16T12:10:51.870Z,19.02
2018-10-16T12:11:52.275Z,19.01
2018-10-16T12:12:52.777Z,18.99
2018-10-16T12:13:53.262Z,18.98
2018-10-16T12:14:53.693Z,18.95
2018-10-16T12:15:54.163Z,18.93
2018-10-16T12:16:54.682Z,18.91
2018-10-16T12:17:55.109Z,18.89
2018-10-16T12:18:55.584Z,18.87
2018-10-16T12:19:56.074Z,18.86
2018-10-16T12:20:56.540Z,18.84
2018-10-16T12:21:56.997Z,18.83
2018-10-16T12:22:57.467Z,18.82
2018-10-16T12:23:57.957Z,18.82
2018-10-16T12:24:58.461Z,18.81
2018-10-16T12:25:59.086Z,18.81
2018-10-16T12:26:59.417Z,18.81
2018-10-16T12:27:59.829Z,18.82
2018-10-16T12:29:00.363Z,18.81
2018-10-16T12:30:00.772Z,18.82
2018-10-16T12:31:01.272Z,18.82
2018-10-16T12:32:01.749Z,18.81
2018-10-16T12:33:02.245Z,18.79
2018-10-16T12:34:02.658Z,18.78
2018-10-16T12:35:03.132Z,18.77
2018-10-16T12:36:03.603Z,18.76
2018-10-16T12:37:04.085Z,18.76
2018-10-16T12:38:04.547Z,18.75
2018-10-16T12:39:05.024Z,18.74
2018-10-16T12:40:05.549Z,18.74
2018-10-16T12:41:05.999Z,18.72
2018-10-16T12:42:06.442Z,18.71
2018-10-16T12:43:06.968Z,18.72
2018-10-16T12:44:07.378Z,18.72
2018-10-16T12:45:07.913Z,18.71
2018-10-16T12:46:08.407Z,18.70
2018-10-16T12:47:08.828Z,18.70
2018-10-16T12:48:09.358Z,18.68
2018-10-16T12:49:09.732Z,18.68
2018-10-16T12:50:10.262Z,18.67
2018-10-16T12:51:10.819Z,18.67
2018-10-16T12:52:11.150Z,18.65
2018-10-16T12:53:11.662Z,18.65
2018-10-16T12:54:12.150Z,18.64
2018-10-16T12:55:12.562Z,18.64
2018-10-16T12:56:13.115Z,18.64
2018-10-16T12:57:13.509Z,18.65
2018-10-16T12:58:13.977Z,18.66